sensor_id;sensor_type;location;lat;lon;timestamp;temperature;humidity
20459;DHT22;10388;52.314;7.938;2023-07-29T00:03:22;17.80;99.90
20459;DHT22;10388;52.314;7.938;2023-07-29T00:05:59;17.80;99.90
20459;DHT22;10388;52.314;7.938;2023-07-29T00:08:32;17.70;99.90
20459;DHT22;10388;52.314;7.938;2023-07-29T00:11:03;17.70;99.90
20459;DHT22;10388;52.314;7.938;2023-07-29T00:13:34;17.70;99.90
20459;DHT22;10388;52.314;7.938;2023-07-29T00:16:05;17.70;99.90
20459;DHT22;10388;52.314;7.938;2023-07-29T00:18:43;17.70;99.90
20459;DHT22;10388;52.314;7.938;2023-07-29T00:21:21;17.70;99.90
20459;DHT22;10388;52.314;7.938;2023-07-29T00:23:51;17.70;99.90
20459;DHT22;10388;52.314;7.938;2023-07-29T00:29:15;17.70;99.90
20459;DHT22;10388;52.314;7.938;2023-07-29T00:31:46;17.80;99.90
20459;DHT22;10388;52.314;7.938;2023-07-29T00:34:16;17.80;99.90
20459;DHT22;10388;52.314;7.938;2023-07-29T00:36:50;17.80;99.90
20459;DHT22;10388;52.314;7.938;2023-07-29T00:39:20;17.80;99.90
20459;DHT22;10388;52.314;7.938;2023-07-29T00:41:51;17.80;99.90
20459;DHT22;10388;52.314;7.938;2023-07-29T00:44:22;17.80;99.90
20459;DHT22;10388;52.314;7.938;2023-07-29T00:46:53;17.80;99.90
20459;DHT22;10388;52.314;7.938;2023-07-29T00:49:23;17.90;99.90
20459;DHT22;10388;52.314;7.938;2023-07-29T00:51:54;17.90;99.90
20459;DHT22;10388;52.314;7.938;2023-07-29T00:54:28;17.90;99.90
20459;DHT22;10388;52.314;7.938;2023-07-29T00:56:59;17.90;99.90
20459;DHT22;10388;52.314;7.938;2023-07-29T00:59:30;17.90;99.90
20459;DHT22;10388;52.314;7.938;2023-07-29T01:02:02;17.90;99.90
20459;DHT22;10388;52.314;7.938;2023-07-29T01:04:33;17.90;99.90
20459;DHT22;10388;52.314;7.938;2023-07-29T01:07:11;17.90;99.90
20459;DHT22;10388;52.314;7.938;2023-07-29T01:10:06;17.80;99.90
20459;DHT22;10388;52.314;7.938;2023-07-29T01:15:14;17.70;99.90
20459;DHT22;10388;52.314;7.938;2023-07-29T01:17:48;17.70;99.90
20459;DHT22;10388;52.314;7.938;2023-07-29T01:20:27;17.70;99.90
20459;DHT22;10388;52.314;7.938;2023-07-29T01:22:58;17.70;99.90
20459;DHT22;10388;52.314;7.938;2023-07-29T01:25:35;17.60;99.90
20459;DHT22;10388;52.314;7.938;2023-07-29T01:28:05;17.60;99.90
20459;DHT22;10388;52.314;7.938;2023-07-29T01:30:40;17.60;99.90
20459;DHT22;10388;52.314;7.938;2023-07-29T01:33:25;17.50;99.90
20459;DHT22;10388;52.314;7.938;2023-07-29T01:36:05;17.50;99.90
20459;DHT22;10388;52.314;7.938;2023-07-29T01:38:38;17.50;99.90
20459;DHT22;10388;52.314;7.938;2023-07-29T01:41:11;17.50;99.90
20459;DHT22;10388;52.314;7.938;2023-07-29T01:43:42;17.50;99.90
20459;DHT22;10388;52.314;7.938;2023-07-29T01:46:16;17.50;99.90
20459;DHT22;10388;52.314;7.938;2023-07-29T01:48:49;17.50;99.90
20459;DHT22;10388;52.314;7.938;2023-07-29T01:51:20;17.50;99.90
20459;DHT22;10388;52.314;7.938;2023-07-29T01:53:51;17.50;99.90
20459;DHT22;10388;52.314;7.938;2023-07-29T01:56:22;17.50;99.90
20459;DHT22;10388;52.314;7.938;2023-07-29T01:58:52;17.50;99.90
20459;DHT22;10388;52.314;7.938;2023-07-29T02:01:23;17.50;99.90
20459;DHT22;10388;52.314;7.938;2023-07-29T02:03:54;17.50;99.90
20459;DHT22;10388;52.314;7.938;2023-07-29T02:06:51;17.50;99.90
20459;DHT22;10388;52.314;7.938;2023-07-29T02:09:22;17.50;99.90
20459;DHT22;10388;52.314;7.938;2023-07-29T02:11:53;17.50;99.90
20459;DHT22;10388;52.314;7.938;2023-07-29T02:14:29;17.60;99.90
20459;DHT22;10388;52.314;7.938;2023-07-29T02:17:00;17.60;99.90
20459;DHT22;10388;52.314;7.938;2023-07-29T02:19:31;17.50;99.90
20459;DHT22;10388;52.314;7.938;2023-07-29T02:22:01;17.60;99.90
20459;DHT22;10388;52.314;7.938;2023-07-29T02:24:41;17.60;99.90
20459;DHT22;10388;52.314;7.938;2023-07-29T02:27:12;17.60;99.90
20459;DHT22;10388;52.314;7.938;2023-07-29T02:29:42;17.70;99.90
20459;DHT22;10388;52.314;7.938;2023-07-29T02:32:13;17.70;99.90
20459;DHT22;10388;52.314;7.938;2023-07-29T02:34:44;17.70;99.90
20459;DHT22;10388;52.314;7.938;2023-07-29T02:37:14;17.80;99.90
20459;DHT22;10388;52.314;7.938;2023-07-29T02:39:45;17.80;99.90
20459;DHT22;10388;52.314;7.938;2023-07-29T02:42:16;17.80;99.90
20459;DHT22;10388;52.314;7.938;2023-07-29T02:44:47;17.80;99.90
20459;DHT22;10388;52.314;7.938;2023-07-29T02:47:17;17.90;99.90
20459;DHT22;10388;52.314;7.938;2023-07-29T02:49:48;17.90;99.90
20459;DHT22;10388;52.314;7.938;2023-07-29T02:52:18;17.90;99.90
20459;DHT22;10388;52.314;7.938;2023-07-29T02:54:49;18.00;99.90
20459;DHT22;10388;52.314;7.938;2023-07-29T02:57:20;18.00;99.90
20459;DHT22;10388;52.314;7.938;2023-07-29T02:59:50;17.90;99.90
20459;DHT22;10388;52.314;7.938;2023-07-29T03:02:24;18.00;99.90
20459;DHT22;10388;52.314;7.938;2023-07-29T03:04:55;18.00;99.90
20459;DHT22;10388;52.314;7.938;2023-07-29T03:07:25;17.90;99.90
20459;DHT22;10388;52.314;7.938;2023-07-29T03:09:56;18.00;99.90
20459;DHT22;10388;52.314;7.938;2023-07-29T03:12:30;18.00;99.90
20459;DHT22;10388;52.314;7.938;2023-07-29T03:15:01;18.00;99.90
20459;DHT22;10388;52.314;7.938;2023-07-29T03:17:32;18.00;99.90
20459;DHT22;10388;52.314;7.938;2023-07-29T03:20:03;18.00;99.90
20459;DHT22;10388;52.314;7.938;2023-07-29T03:22:33;18.00;99.90
20459;DHT22;10388;52.314;7.938;2023-07-29T03:25:04;18.10;99.90
20459;DHT22;10388;52.314;7.938;2023-07-29T03:27:36;18.00;99.90
20459;DHT22;10388;52.314;7.938;2023-07-29T03:30:07;18.10;99.90
20459;DHT22;10388;52.314;7.938;2023-07-29T03:32:43;18.10;99.90
20459;DHT22;10388;52.314;7.938;2023-07-29T03:38:06;18.10;99.90
20459;DHT22;10388;52.314;7.938;2023-07-29T03:40:38;18.10;99.90
20459;DHT22;10388;52.314;7.938;2023-07-29T03:43:09;18.20;99.90
20459;DHT22;10388;52.314;7.938;2023-07-29T03:46:02;18.20;99.90
20459;DHT22;10388;52.314;7.938;2023-07-29T03:48:35;18.20;99.90
20459;DHT22;10388;52.314;7.938;2023-07-29T03:51:19;18.20;99.90
20459;DHT22;10388;52.314;7.938;2023-07-29T03:53:52;18.20;99.90
20459;DHT22;10388;52.314;7.938;2023-07-29T03:56:25;18.20;99.90
20459;DHT22;10388;52.314;7.938;2023-07-29T03:59:06;18.30;99.90
20459;DHT22;10388;52.314;7.938;2023-07-29T04:01:37;18.20;99.90
20459;DHT22;10388;52.314;7.938;2023-07-29T04:04:46;18.30;99.90
20459;DHT22;10388;52.314;7.938;2023-07-29T04:07:58;18.30;99.90
20459;DHT22;10388;52.314;7.938;2023-07-29T04:10:46;18.30;99.90
20459;DHT22;10388;52.314;7.938;2023-07-29T04:14:01;18.30;99.90
20459;DHT22;10388;52.314;7.938;2023-07-29T04:16:43;18.30;99.90
20459;DHT22;10388;52.314;7.938;2023-07-29T04:19:16;18.30;99.90
20459;DHT22;10388;52.314;7.938;2023-07-29T04:21:50;18.30;99.90
20459;DHT22;10388;52.314;7.938;2023-07-29T04:27:30;18.30;99.90
20459;DHT22;10388;52.314;7.938;2023-07-29T04:30:01;18.20;99.90
20459;DHT22;10388;52.314;7.938;2023-07-29T04:32:31;18.30;99.90
20459;DHT22;10388;52.314;7.938;2023-07-29T04:35:09;18.20;99.90
20459;DHT22;10388;52.314;7.938;2023-07-29T04:37:49;18.30;99.90
20459;DHT22;10388;52.314;7.938;2023-07-29T04:40:43;18.30;99.90
20459;DHT22;10388;52.314;7.938;2023-07-29T04:43:14;18.30;99.90
20459;DHT22;10388;52.314;7.938;2023-07-29T04:45:44;18.30;99.90
20459;DHT22;10388;52.314;7.938;2023-07-29T04:48:23;18.30;99.90
20459;DHT22;10388;52.314;7.938;2023-07-29T04:51:08;18.30;99.90
20459;DHT22;10388;52.314;7.938;2023-07-29T04:53:45;18.30;99.90
20459;DHT22;10388;52.314;7.938;2023-07-29T04:56:30;18.30;99.90
20459;DHT22;10388;52.314;7.938;2023-07-29T04:59:56;18.30;99.90
20459;DHT22;10388;52.314;7.938;2023-07-29T05:02:52;18.40;99.90
20459;DHT22;10388;52.314;7.938;2023-07-29T05:05:39;18.40;99.90
20459;DHT22;10388;52.314;7.938;2023-07-29T05:08:10;18.40;99.90
20459;DHT22;10388;52.314;7.938;2023-07-29T05:11:07;18.40;99.90
20459;DHT22;10388;52.314;7.938;2023-07-29T05:13:51;18.40;99.90
20459;DHT22;10388;52.314;7.938;2023-07-29T05:16:31;18.50;99.90
20459;DHT22;10388;52.314;7.938;2023-07-29T05:19:01;18.50;99.90
20459;DHT22;10388;52.314;7.938;2023-07-29T05:24:54;18.50;99.90
20459;DHT22;10388;52.314;7.938;2023-07-29T05:27:25;18.50;99.90
20459;DHT22;10388;52.314;7.938;2023-07-29T05:29:55;18.60;99.90
20459;DHT22;10388;52.314;7.938;2023-07-29T05:32:26;18.60;99.90
20459;DHT22;10388;52.314;7.938;2023-07-29T05:34:56;18.60;99.90
20459;DHT22;10388;52.314;7.938;2023-07-29T05:37:27;18.60;99.90
20459;DHT22;10388;52.314;7.938;2023-07-29T05:39:57;18.70;99.90
20459;DHT22;10388;52.314;7.938;2023-07-29T05:42:28;18.60;99.90
20459;DHT22;10388;52.314;7.938;2023-07-29T05:44:58;18.60;99.90
20459;DHT22;10388;52.314;7.938;2023-07-29T05:47:29;18.70;99.90
20459;DHT22;10388;52.314;7.938;2023-07-29T05:49:59;18.70;99.90
20459;DHT22;10388;52.314;7.938;2023-07-29T05:52:34;18.70;99.90
20459;DHT22;10388;52.314;7.938;2023-07-29T05:55:05;18.70;99.90
20459;DHT22;10388;52.314;7.938;2023-07-29T05:57:36;18.80;99.90
20459;DHT22;10388;52.314;7.938;2023-07-29T06:00:07;18.80;99.90
20459;DHT22;10388;52.314;7.938;2023-07-29T06:02:38;18.90;99.90
20459;DHT22;10388;52.314;7.938;2023-07-29T06:05:11;18.90;99.90
20459;DHT22;10388;52.314;7.938;2023-07-29T06:07:41;18.90;99.90
20459;DHT22;10388;52.314;7.938;2023-07-29T06:10:16;18.90;99.90
20459;DHT22;10388;52.314;7.938;2023-07-29T06:12:48;18.90;99.90
20459;DHT22;10388;52.314;7.938;2023-07-29T06:15:19;18.90;99.90
20459;DHT22;10388;52.314;7.938;2023-07-29T06:17:53;19.00;99.90
20459;DHT22;10388;52.314;7.938;2023-07-29T06:20:23;19.00;99.90
20459;DHT22;10388;52.314;7.938;2023-07-29T06:22:54;19.10;99.90
20459;DHT22;10388;52.314;7.938;2023-07-29T06:25:24;19.10;99.90
20459;DHT22;10388;52.314;7.938;2023-07-29T06:27:55;19.20;99.90
20459;DHT22;10388;52.314;7.938;2023-07-29T06:30:26;19.30;99.90
20459;DHT22;10388;52.314;7.938;2023-07-29T06:32:56;19.30;99.90
20459;DHT22;10388;52.314;7.938;2023-07-29T06:35:27;19.40;99.90
20459;DHT22;10388;52.314;7.938;2023-07-29T06:37:57;19.50;99.90
20459;DHT22;10388;52.314;7.938;2023-07-29T06:40:28;19.50;99.90
20459;DHT22;10388;52.314;7.938;2023-07-29T06:42:58;19.40;99.90
20459;DHT22;10388;52.314;7.938;2023-07-29T06:45:29;19.40;99.90
20459;DHT22;10388;52.314;7.938;2023-07-29T06:47:59;19.40;99.90
20459;DHT22;10388;52.314;7.938;2023-07-29T06:50:30;19.30;99.90
20459;DHT22;10388;52.314;7.938;2023-07-29T06:53:00;19.30;99.90
20459;DHT22;10388;52.314;7.938;2023-07-29T06:55:31;19.20;99.90
20459;DHT22;10388;52.314;7.938;2023-07-29T06:58:01;19.30;99.90
20459;DHT22;10388;52.314;7.938;2023-07-29T07:00:32;19.40;99.90
20459;DHT22;10388;52.314;7.938;2023-07-29T07:03:03;19.40;99.90
20459;DHT22;10388;52.314;7.938;2023-07-29T07:05:33;19.50;99.90
20459;DHT22;10388;52.314;7.938;2023-07-29T07:08:04;19.50;99.90
20459;DHT22;10388;52.314;7.938;2023-07-29T07:10:34;19.50;99.90
20459;DHT22;10388;52.314;7.938;2023-07-29T07:13:05;19.40;99.90
20459;DHT22;10388;52.314;7.938;2023-07-29T07:15:35;19.50;99.90
20459;DHT22;10388;52.314;7.938;2023-07-29T07:18:06;19.50;99.90
20459;DHT22;10388;52.314;7.938;2023-07-29T07:20:36;19.50;99.90
20459;DHT22;10388;52.314;7.938;2023-07-29T07:23:07;19.50;99.90
20459;DHT22;10388;52.314;7.938;2023-07-29T07:25:41;19.60;99.90
20459;DHT22;10388;52.314;7.938;2023-07-29T07:28:12;19.70;99.90
20459;DHT22;10388;52.314;7.938;2023-07-29T07:30:43;19.70;99.90
20459;DHT22;10388;52.314;7.938;2023-07-29T07:33:13;19.70;99.90
20459;DHT22;10388;52.314;7.938;2023-07-29T07:35:44;19.70;99.90
20459;DHT22;10388;52.314;7.938;2023-07-29T07:38:15;19.70;99.90
20459;DHT22;10388;52.314;7.938;2023-07-29T07:40:57;19.60;99.90
20459;DHT22;10388;52.314;7.938;2023-07-29T07:43:28;19.70;99.90
20459;DHT22;10388;52.314;7.938;2023-07-29T07:46:00;19.70;99.90
20459;DHT22;10388;52.314;7.938;2023-07-29T07:48:31;19.70;99.90
20459;DHT22;10388;52.314;7.938;2023-07-29T07:51:13;19.60;99.90
20459;DHT22;10388;52.314;7.938;2023-07-29T07:53:43;19.50;99.90
20459;DHT22;10388;52.314;7.938;2023-07-29T07:56:14;19.40;99.90
20459;DHT22;10388;52.314;7.938;2023-07-29T07:58:45;19.50;99.90
20459;DHT22;10388;52.314;7.938;2023-07-29T08:01:15;19.50;99.90
20459;DHT22;10388;52.314;7.938;2023-07-29T08:03:46;19.70;99.90
20459;DHT22;10388;52.314;7.938;2023-07-29T08:06:17;19.90;99.90
20459;DHT22;10388;52.314;7.938;2023-07-29T08:08:47;20.00;99.90
20459;DHT22;10388;52.314;7.938;2023-07-29T08:11:18;20.00;99.90
20459;DHT22;10388;52.314;7.938;2023-07-29T08:13:48;20.00;99.90
20459;DHT22;10388;52.314;7.938;2023-07-29T08:16:19;20.00;99.90
20459;DHT22;10388;52.314;7.938;2023-07-29T08:18:49;19.90;99.90
20459;DHT22;10388;52.314;7.938;2023-07-29T08:21:20;19.90;99.90
20459;DHT22;10388;52.314;7.938;2023-07-29T08:23:50;19.80;99.90
20459;DHT22;10388;52.314;7.938;2023-07-29T08:26:21;19.90;99.90
20459;DHT22;10388;52.314;7.938;2023-07-29T08:28:51;20.00;99.90
20459;DHT22;10388;52.314;7.938;2023-07-29T08:31:22;20.00;99.90
20459;DHT22;10388;52.314;7.938;2023-07-29T08:33:52;20.10;99.90
20459;DHT22;10388;52.314;7.938;2023-07-29T08:36:23;20.10;99.90
20459;DHT22;10388;52.314;7.938;2023-07-29T08:38:53;20.10;99.90
20459;DHT22;10388;52.314;7.938;2023-07-29T08:44:26;20.30;99.90
20459;DHT22;10388;52.314;7.938;2023-07-29T08:46:57;20.30;99.90
20459;DHT22;10388;52.314;7.938;2023-07-29T08:49:30;20.40;99.90
20459;DHT22;10388;52.314;7.938;2023-07-29T08:52:01;20.40;99.90
20459;DHT22;10388;52.314;7.938;2023-07-29T08:54:32;20.50;99.90
20459;DHT22;10388;52.314;7.938;2023-07-29T08:57:03;20.60;99.90
20459;DHT22;10388;52.314;7.938;2023-07-29T08:59:34;20.80;99.90
20459;DHT22;10388;52.314;7.938;2023-07-29T09:02:05;20.80;99.90
20459;DHT22;10388;52.314;7.938;2023-07-29T09:04:37;20.80;99.90
20459;DHT22;10388;52.314;7.938;2023-07-29T09:07:07;21.10;99.90
20459;DHT22;10388;52.314;7.938;2023-07-29T09:09:38;21.10;99.90
20459;DHT22;10388;52.314;7.938;2023-07-29T09:12:08;21.10;99.90
20459;DHT22;10388;52.314;7.938;2023-07-29T09:14:39;21.10;99.90
20459;DHT22;10388;52.314;7.938;2023-07-29T09:17:10;21.00;99.90
20459;DHT22;10388;52.314;7.938;2023-07-29T09:19:40;21.00;99.90
20459;DHT22;10388;52.314;7.938;2023-07-29T09:22:20;20.90;99.90
20459;DHT22;10388;52.314;7.938;2023-07-29T09:24:51;21.10;99.90
20459;DHT22;10388;52.314;7.938;2023-07-29T09:27:26;21.30;99.90
20459;DHT22;10388;52.314;7.938;2023-07-29T09:29:57;21.70;99.90
20459;DHT22;10388;52.314;7.938;2023-07-29T09:32:28;21.90;99.90
20459;DHT22;10388;52.314;7.938;2023-07-29T09:34:58;21.90;99.90
20459;DHT22;10388;52.314;7.938;2023-07-29T09:37:29;21.80;99.90
20459;DHT22;10388;52.314;7.938;2023-07-29T09:40:01;22.00;99.90
20459;DHT22;10388;52.314;7.938;2023-07-29T09:42:32;22.10;99.90
20459;DHT22;10388;52.314;7.938;2023-07-29T09:45:02;22.40;99.90
20459;DHT22;10388;52.314;7.938;2023-07-29T09:47:33;22.40;99.90
20459;DHT22;10388;52.314;7.938;2023-07-29T09:50:04;22.60;99.90
20459;DHT22;10388;52.314;7.938;2023-07-29T09:52:35;22.70;99.90
20459;DHT22;10388;52.314;7.938;2023-07-29T09:55:06;22.80;99.90
20459;DHT22;10388;52.314;7.938;2023-07-29T09:57:37;23.00;99.90
20459;DHT22;10388;52.314;7.938;2023-07-29T10:00:11;22.80;99.90
20459;DHT22;10388;52.314;7.938;2023-07-29T10:02:43;22.60;99.90
20459;DHT22;10388;52.314;7.938;2023-07-29T10:05:13;22.90;99.90
20459;DHT22;10388;52.314;7.938;2023-07-29T10:07:45;23.00;99.90
20459;DHT22;10388;52.314;7.938;2023-07-29T10:10:16;22.80;99.90
20459;DHT22;10388;52.314;7.938;2023-07-29T10:12:47;22.90;99.90
20459;DHT22;10388;52.314;7.938;2023-07-29T10:15:18;22.90;99.90
20459;DHT22;10388;52.314;7.938;2023-07-29T10:17:50;22.60;99.90
20459;DHT22;10388;52.314;7.938;2023-07-29T10:20:21;22.70;99.90
20459;DHT22;10388;52.314;7.938;2023-07-29T10:22:54;22.70;99.90
20459;DHT22;10388;52.314;7.938;2023-07-29T10:25:32;22.80;99.90
20459;DHT22;10388;52.314;7.938;2023-07-29T10:28:07;22.80;99.90
20459;DHT22;10388;52.314;7.938;2023-07-29T10:30:38;22.70;99.90
20459;DHT22;10388;52.314;7.938;2023-07-29T10:33:09;22.60;99.90
20459;DHT22;10388;52.314;7.938;2023-07-29T10:35:41;22.60;99.90
20459;DHT22;10388;52.314;7.938;2023-07-29T10:38:12;22.50;99.90
20459;DHT22;10388;52.314;7.938;2023-07-29T10:40:46;22.40;99.90
20459;DHT22;10388;52.314;7.938;2023-07-29T10:43:36;22.40;99.90
20459;DHT22;10388;52.314;7.938;2023-07-29T10:46:21;22.60;99.90
20459;DHT22;10388;52.314;7.938;2023-07-29T10:48:54;23.00;99.90
20459;DHT22;10388;52.314;7.938;2023-07-29T10:53:58;23.60;99.90
20459;DHT22;10388;52.314;7.938;2023-07-29T10:56:33;23.70;99.90
20459;DHT22;10388;52.314;7.938;2023-07-29T11:01:56;24.00;99.90
20459;DHT22;10388;52.314;7.938;2023-07-29T11:04:29;23.80;99.90
20459;DHT22;10388;52.314;7.938;2023-07-29T11:09:51;23.90;99.90
20459;DHT22;10388;52.314;7.938;2023-07-29T11:17:53;24.10;99.90
20459;DHT22;10388;52.314;7.938;2023-07-29T11:20:31;24.20;99.90
20459;DHT22;10388;52.314;7.938;2023-07-29T11:23:03;24.30;99.90
20459;DHT22;10388;52.314;7.938;2023-07-29T11:25:33;24.20;99.90
20459;DHT22;10388;52.314;7.938;2023-07-29T11:28:05;23.60;99.90
20459;DHT22;10388;52.314;7.938;2023-07-29T11:30:39;23.70;99.90
20459;DHT22;10388;52.314;7.938;2023-07-29T11:33:10;24.00;99.90
20459;DHT22;10388;52.314;7.938;2023-07-29T11:35:41;24.30;99.90
20459;DHT22;10388;52.314;7.938;2023-07-29T11:38:16;24.30;99.90
20459;DHT22;10388;52.314;7.938;2023-07-29T11:40:58;24.20;99.90
20459;DHT22;10388;52.314;7.938;2023-07-29T11:43:29;24.20;99.90
20459;DHT22;10388;52.314;7.938;2023-07-29T11:46:01;24.40;99.90
20459;DHT22;10388;52.314;7.938;2023-07-29T11:48:32;24.60;99.90
20459;DHT22;10388;52.314;7.938;2023-07-29T11:51:03;24.70;99.90
20459;DHT22;10388;52.314;7.938;2023-07-29T11:53:34;24.30;99.90
20459;DHT22;10388;52.314;7.938;2023-07-29T11:56:04;24.00;99.90
20459;DHT22;10388;52.314;7.938;2023-07-29T11:58:35;23.70;99.90
20459;DHT22;10388;52.314;7.938;2023-07-29T12:01:07;23.70;99.90
20459;DHT22;10388;52.314;7.938;2023-07-29T12:03:38;24.00;99.90
20459;DHT22;10388;52.314;7.938;2023-07-29T12:06:09;24.20;99.90
20459;DHT22;10388;52.314;7.938;2023-07-29T12:08:40;24.00;99.90
20459;DHT22;10388;52.314;7.938;2023-07-29T12:11:12;23.70;99.90
20459;DHT22;10388;52.314;7.938;2023-07-29T12:13:43;23.50;99.90
20459;DHT22;10388;52.314;7.938;2023-07-29T12:16:17;23.20;99.90
20459;DHT22;10388;52.314;7.938;2023-07-29T12:18:50;23.10;99.90
20459;DHT22;10388;52.314;7.938;2023-07-29T12:21:21;23.00;99.90
20459;DHT22;10388;52.314;7.938;2023-07-29T12:23:52;23.20;99.90
20459;DHT22;10388;52.314;7.938;2023-07-29T12:26:27;23.70;99.90
20459;DHT22;10388;52.314;7.938;2023-07-29T12:28:58;24.00;99.90
20459;DHT22;10388;52.314;7.938;2023-07-29T12:31:32;23.90;99.90
20459;DHT22;10388;52.314;7.938;2023-07-29T12:34:03;23.70;99.90
20459;DHT22;10388;52.314;7.938;2023-07-29T12:36:45;23.90;99.90
20459;DHT22;10388;52.314;7.938;2023-07-29T12:39:27;24.30;99.90
20459;DHT22;10388;52.314;7.938;2023-07-29T12:41:59;24.10;99.90
20459;DHT22;10388;52.314;7.938;2023-07-29T12:44:32;23.80;99.90
20459;DHT22;10388;52.314;7.938;2023-07-29T12:47:05;23.70;99.90
20459;DHT22;10388;52.314;7.938;2023-07-29T12:49:36;23.70;99.90
20459;DHT22;10388;52.314;7.938;2023-07-29T12:52:06;23.70;99.90
20459;DHT22;10388;52.314;7.938;2023-07-29T12:54:37;23.80;99.90
20459;DHT22;10388;52.314;7.938;2023-07-29T12:57:07;23.60;99.90
20459;DHT22;10388;52.314;7.938;2023-07-29T12:59:38;23.50;99.90
20459;DHT22;10388;52.314;7.938;2023-07-29T13:02:09;23.50;99.90
20459;DHT22;10388;52.314;7.938;2023-07-29T13:04:42;23.20;99.90
20459;DHT22;10388;52.314;7.938;2023-07-29T13:07:13;23.20;99.90
20459;DHT22;10388;52.314;7.938;2023-07-29T13:09:43;23.30;99.90
20459;DHT22;10388;52.314;7.938;2023-07-29T13:12:14;23.40;99.90
20459;DHT22;10388;52.314;7.938;2023-07-29T13:14:44;23.50;99.90
20459;DHT22;10388;52.314;7.938;2023-07-29T13:17:15;23.50;99.90
20459;DHT22;10388;52.314;7.938;2023-07-29T13:19:45;23.50;99.90
20459;DHT22;10388;52.314;7.938;2023-07-29T13:22:16;23.70;99.90
20459;DHT22;10388;52.314;7.938;2023-07-29T13:24:47;24.00;99.90
20459;DHT22;10388;52.314;7.938;2023-07-29T13:27:18;24.00;99.90
20459;DHT22;10388;52.314;7.938;2023-07-29T13:29:48;23.90;99.90
20459;DHT22;10388;52.314;7.938;2023-07-29T13:32:19;23.60;99.90
20459;DHT22;10388;52.314;7.938;2023-07-29T13:34:49;23.80;99.90
20459;DHT22;10388;52.314;7.938;2023-07-29T13:37:20;23.70;99.90
20459;DHT22;10388;52.314;7.938;2023-07-29T13:39:50;23.60;99.90
20459;DHT22;10388;52.314;7.938;2023-07-29T13:42:21;23.60;99.90
20459;DHT22;10388;52.314;7.938;2023-07-29T13:44:51;23.60;99.90
20459;DHT22;10388;52.314;7.938;2023-07-29T13:47:22;23.50;99.90
20459;DHT22;10388;52.314;7.938;2023-07-29T13:49:52;23.20;99.90
20459;DHT22;10388;52.314;7.938;2023-07-29T13:52:23;23.10;99.90
20459;DHT22;10388;52.314;7.938;2023-07-29T13:54:53;23.10;99.90
20459;DHT22;10388;52.314;7.938;2023-07-29T13:57:24;23.10;99.90
20459;DHT22;10388;52.314;7.938;2023-07-29T13:59:54;23.20;99.90
20459;DHT22;10388;52.314;7.938;2023-07-29T14:02:25;23.10;99.90
20459;DHT22;10388;52.314;7.938;2023-07-29T14:05:01;23.00;99.90
20459;DHT22;10388;52.314;7.938;2023-07-29T14:07:31;22.80;99.90
20459;DHT22;10388;52.314;7.938;2023-07-29T14:10:02;22.70;99.90
20459;DHT22;10388;52.314;7.938;2023-07-29T14:12:33;22.70;99.90
20459;DHT22;10388;52.314;7.938;2023-07-29T14:15:05;22.70;99.90
20459;DHT22;10388;52.314;7.938;2023-07-29T14:17:36;22.80;99.90
20459;DHT22;10388;52.314;7.938;2023-07-29T14:20:07;22.80;99.90
20459;DHT22;10388;52.314;7.938;2023-07-29T14:22:38;22.70;99.90
20459;DHT22;10388;52.314;7.938;2023-07-29T14:25:08;22.60;99.90
20459;DHT22;10388;52.314;7.938;2023-07-29T14:27:39;22.60;99.90
20459;DHT22;10388;52.314;7.938;2023-07-29T14:30:10;22.60;99.90
20459;DHT22;10388;52.314;7.938;2023-07-29T14:32:40;22.40;99.90
20459;DHT22;10388;52.314;7.938;2023-07-29T14:35:13;22.30;99.90
20459;DHT22;10388;52.314;7.938;2023-07-29T14:37:44;22.20;99.90
20459;DHT22;10388;52.314;7.938;2023-07-29T14:40:14;21.90;99.90
20459;DHT22;10388;52.314;7.938;2023-07-29T14:42:45;21.90;99.90
20459;DHT22;10388;52.314;7.938;2023-07-29T14:45:15;21.70;99.90
20459;DHT22;10388;52.314;7.938;2023-07-29T14:47:46;21.60;99.90
20459;DHT22;10388;52.314;7.938;2023-07-29T14:50:16;21.50;99.90
20459;DHT22;10388;52.314;7.938;2023-07-29T14:52:47;21.50;99.90
20459;DHT22;10388;52.314;7.938;2023-07-29T14:55:18;21.70;99.90
20459;DHT22;10388;52.314;7.938;2023-07-29T14:57:48;21.90;99.90
20459;DHT22;10388;52.314;7.938;2023-07-29T15:00:19;22.20;99.90
20459;DHT22;10388;52.314;7.938;2023-07-29T15:02:50;22.40;99.90
20459;DHT22;10388;52.314;7.938;2023-07-29T15:05:20;22.40;99.90
20459;DHT22;10388;52.314;7.938;2023-07-29T15:07:51;22.30;99.90
20459;DHT22;10388;52.314;7.938;2023-07-29T15:10:21;22.20;99.90
20459;DHT22;10388;52.314;7.938;2023-07-29T15:12:52;22.20;99.90
20459;DHT22;10388;52.314;7.938;2023-07-29T15:15:22;22.10;99.90
20459;DHT22;10388;52.314;7.938;2023-07-29T15:17:53;22.20;99.90
20459;DHT22;10388;52.314;7.938;2023-07-29T15:20:23;22.20;99.90
20459;DHT22;10388;52.314;7.938;2023-07-29T15:22:54;22.10;99.90
20459;DHT22;10388;52.314;7.938;2023-07-29T15:25:24;21.90;99.90
20459;DHT22;10388;52.314;7.938;2023-07-29T15:27:55;22.00;99.90
20459;DHT22;10388;52.314;7.938;2023-07-29T15:30:26;21.90;99.90
20459;DHT22;10388;52.314;7.938;2023-07-29T15:32:56;21.80;99.90
20459;DHT22;10388;52.314;7.938;2023-07-29T15:35:27;21.70;99.90
20459;DHT22;10388;52.314;7.938;2023-07-29T15:37:57;21.60;99.90
20459;DHT22;10388;52.314;7.938;2023-07-29T15:40:28;21.50;99.90
20459;DHT22;10388;52.314;7.938;2023-07-29T15:42:58;21.50;99.90
20459;DHT22;10388;52.314;7.938;2023-07-29T15:45:29;21.60;99.90
20459;DHT22;10388;52.314;7.938;2023-07-29T15:50:41;21.60;99.90
20459;DHT22;10388;52.314;7.938;2023-07-29T15:53:11;21.60;99.90
20459;DHT22;10388;52.314;7.938;2023-07-29T15:55:42;21.70;99.90
20459;DHT22;10388;52.314;7.938;2023-07-29T15:58:12;21.70;99.90
20459;DHT22;10388;52.314;7.938;2023-07-29T16:00:43;21.80;99.90
20459;DHT22;10388;52.314;7.938;2023-07-29T16:03:13;21.80;99.90
20459;DHT22;10388;52.314;7.938;2023-07-29T16:05:44;21.90;99.90
20459;DHT22;10388;52.314;7.938;2023-07-29T16:08:16;21.90;99.90
20459;DHT22;10388;52.314;7.938;2023-07-29T16:10:46;21.90;99.90
20459;DHT22;10388;52.314;7.938;2023-07-29T16:13:17;21.90;99.90
20459;DHT22;10388;52.314;7.938;2023-07-29T16:15:49;21.90;99.90
20459;DHT22;10388;52.314;7.938;2023-07-29T16:18:20;21.80;99.90
20459;DHT22;10388;52.314;7.938;2023-07-29T16:20:51;21.80;99.90
20459;DHT22;10388;52.314;7.938;2023-07-29T16:23:21;21.70;99.90
20459;DHT22;10388;52.314;7.938;2023-07-29T16:25:51;21.70;99.90
20459;DHT22;10388;52.314;7.938;2023-07-29T16:28:22;21.60;99.90
20459;DHT22;10388;52.314;7.938;2023-07-29T16:30:53;21.50;99.90
20459;DHT22;10388;52.314;7.938;2023-07-29T16:33:23;21.40;99.90
20459;DHT22;10388;52.314;7.938;2023-07-29T16:35:54;21.50;99.90
20459;DHT22;10388;52.314;7.938;2023-07-29T16:38:24;21.40;99.90
20459;DHT22;10388;52.314;7.938;2023-07-29T16:40:55;21.40;99.90